Time;durP1;ratioP1;P1;durP2;ratioP2;P2;SDS_P1;SDS_P2;PMS_P1;PMS_P2;Temp;Humidity;BMP_temperature;BMP_pressure;BME280_temperature;BME280_humidity;BME280_pressure;Samples;Min_cycle;Max_cycle;Signal;HPM_P1;HPM_P2
2022/06/16 00:01:25;;;;;;;0.15;0.15;;;20.20;78.30;;;;;;5052637;28;20025;-73
2022/06/16 00:03:51;;;;;;;0.17;0.17;;;20.10;78.30;;;;;;5034826;28;20388;-73
2022/06/16 00:06:17;;;;;;;0.30;0.30;;;20.00;78.50;;;;;;5052478;28;20029;-72
2022/06/16 00:08:42;;;;;;;0.82;0.82;;;20.00;78.50;;;;;;5034343;28;20560;-73
2022/06/16 00:11:17;;;;;;;0.52;0.52;;;19.80;78.90;;;;;;5052581;28;20107;-73
2022/06/16 00:13:44;;;;;;;0.00;0.00;;;19.60;79.90;;;;;;5052387;28;20028;-73
2022/06/16 00:16:11;;;;;;;0.10;0.10;;;19.60;80.20;;;;;;5034429;28;20025;-72
2022/06/16 00:18:38;;;;;;;0.35;0.25;;;19.60;80.20;;;;;;5052113;28;20028;-73
2022/06/16 00:21:04;;;;;;;0.10;0.10;;;19.70;80.10;;;;;;5052736;28;20025;-73
2022/06/16 00:23:30;;;;;;;0.38;0.38;;;19.80;79.90;;;;;;5052247;28;20100;-70
2022/06/16 00:25:56;;;;;;;0.47;0.43;;;19.80;79.70;;;;;;5034275;28;20028;-72
2022/06/16 00:28:22;;;;;;;0.22;0.22;;;19.80;79.60;;;;;;5052096;28;20036;-73
2022/06/16 00:30:48;;;;;;;0.10;0.10;;;19.90;79.30;;;;;;5052168;28;20032;-73
2022/06/16 00:33:14;;;;;;;0.10;0.10;;;19.80;79.30;;;;;;5052253;28;20033;-73
2022/06/16 00:35:40;;;;;;;4.35;0.68;;;19.90;80.00;;;;;;5017744;28;20534;-73
2022/06/16 00:38:05;;;;;;;0.10;0.10;;;19.80;79.60;;;;;;5034015;28;20025;-73
2022/06/16 00:40:31;;;;;;;0.20;0.20;;;19.60;80.30;;;;;;5052232;28;20025;-73
2022/06/16 00:42:57;;;;;;;0.10;0.10;;;19.60;80.60;;;;;;5052187;28;20086;-70
2022/06/16 00:46:03;;;;;;;0.10;0.10;;;19.50;80.70;;;;;;5034491;28;20036;-72
2022/06/16 00:48:35;;;;;;;0.10;0.10;;;19.80;80.10;;;;;;4954694;28;20089;-72
2022/06/16 00:51:07;;;;;;;0.25;0.25;;;19.60;80.40;;;;;;4971309;28;20035;-73
2022/06/16 00:53:33;;;;;;;0.40;0.40;;;19.50;80.80;;;;;;5016513;28;20112;-72
2022/06/16 00:55:59;;;;;;;0.57;0.57;;;19.40;80.90;;;;;;5052071;28;20021;-72
2022/06/16 00:58:28;;;;;;;0.30;0.30;;;19.30;81.40;;;;;;5051852;28;20021;-72
2022/06/16 01:00:53;;;;;;;0.10;0.10;;;19.30;82.10;;;;;;5052098;28;20021;-71
2022/06/16 01:06:24;;;;;;;1.02;0.90;;;19.60;81.40;;;;;;5051997;28;20043;-73
2022/06/16 01:09:13;;;;;;;0.50;0.50;;;19.40;81.60;;;;;;5051826;28;20484;-71
2022/06/16 01:15:00;;;;;;;0.88;0.80;;;19.00;84.70;;;;;;5052147;28;20084;-72
2022/06/16 01:17:54;;;;;;;0.63;0.63;;;18.70;85.40;;;;;;5033623;28;20112;-71
2022/06/16 01:20:37;;;;;;;0.50;0.50;;;18.60;86.00;;;;;;5051671;28;20514;-71
2022/06/16 01:23:36;;;;;;;1.85;1.23;;;18.50;86.30;;;;;;5051787;28;20017;-71
2022/06/16 01:26:42;;;;;;;0.20;0.20;;;18.60;86.40;;;;;;5037754;28;20500;-71
2022/06/16 01:29:17;;;;;;;3.40;3.10;;;18.70;85.70;;;;;;5015191;28;20054;-70
2022/06/16 01:31:59;;;;;;;0.28;0.28;;;18.80;85.10;;;;;;5055490;28;20024;-72
2022/06/16 01:34:43;;;;;;;;;;;19.00;84.70;;;;;;5055812;28;20542;-71
2022/06/16 01:37:34;;;;;;;0.10;0.10;;;19.20;83.80;;;;;;5055212;28;19905;-71
2022/06/16 01:40:26;;;;;;;0.10;0.10;;;19.30;83.70;;;;;;5055533;28;20025;-71
2022/06/16 01:43:14;;;;;;;0.05;0.05;;;19.40;83.60;;;;;;5055200;28;20079;-71
2022/06/16 01:45:47;;;;;;;0.20;0.20;;;19.40;83.70;;;;;;5054483;28;20037;-71
2022/06/16 01:48:15;;;;;;;0.00;0.00;;;19.20;84.20;;;;;;5037112;28;20083;-71
2022/06/16 01:50:55;;;;;;;2.72;0.65;;;19.10;84.40;;;;;;5037088;28;20025;-71
2022/06/16 01:53:36;;;;;;;0.17;0.17;;;19.10;84.20;;;;;;5054962;28;20583;-71
2022/06/16 01:56:16;;;;;;;0.20;0.20;;;19.10;84.30;;;;;;5055468;28;20021;-71
2022/06/16 01:58:49;;;;;;;0.63;0.63;;;19.10;84.50;;;;;;5054788;28;20025;-72
2022/06/16 02:01:18;;;;;;;2.08;0.65;;;18.80;85.90;;;;;;5054941;28;20450;-71
2022/06/16 02:03:50;;;;;;;0.10;0.10;;;18.70;86.00;;;;;;5055053;28;20092;-70
2022/06/16 02:06:30;;;;;;;0.20;0.20;;;18.70;86.00;;;;;;5054938;28;20025;-71
2022/06/16 02:09:14;;;;;;;5.05;0.40;;;18.50;86.40;;;;;;5036628;28;20039;-71
2022/06/16 02:11:42;;;;;;;0.85;0.73;;;18.40;86.80;;;;;;5054776;28;20057;-71
2022/06/16 02:14:24;;;;;;;0.30;0.30;;;18.40;86.80;;;;;;5054557;28;20056;-71
2022/06/16 02:16:51;;;;;;;0.10;0.10;;;18.40;87.10;;;;;;5054456;28;20380;-69
2022/06/16 02:19:21;;;;;;;0.10;0.10;;;18.50;86.40;;;;;;5054361;28;20040;-72
2022/06/16 02:21:49;;;;;;;0.10;0.10;;;18.70;86.50;;;;;;5036787;28;20551;-71
2022/06/16 02:24:17;;;;;;;0.10;0.10;;;18.80;85.60;;;;;;5054379;28;20039;-71
2022/06/16 02:26:44;;;;;;;0.10;0.10;;;18.80;85.60;;;;;;5054242;28;20103;-72
2022/06/16 02:29:21;;;;;;;0.10;0.10;;;18.80;85.40;;;;;;5054200;28;20508;-71
2022/06/16 02:32:02;;;;;;;0.10;0.10;;;19.00;85.50;;;;;;5054191;28;20043;-72
2022/06/16 02:34:31;;;;;;;0.10;0.10;;;18.90;84.90;;;;;;5053968;28;20120;-71
2022/06/16 02:37:18;;;;;;;0.10;0.10;;;19.00;85.30;;;;;;5053215;28;20033;-71
2022/06/16 02:40:11;;;;;;;0.10;0.10;;;19.00;84.50;;;;;;5054139;28;20024;-72
2022/06/16 02:43:19;;;;;;;0.17;0.17;;;19.00;85.80;;;;;;5054235;28;20383;-71
2022/06/16 02:45:56;;;;;;;0.10;0.10;;;18.80;85.40;;;;;;5036194;28;20029;-72
2022/06/16 02:48:42;;;;;;;0.20;0.20;;;18.70;86.60;;;;;;5053799;28;20436;-71
2022/06/16 02:51:10;;;;;;;0.17;0.17;;;18.60;87.50;;;;;;5054059;28;20029;-71
2022/06/16 02:53:46;;;;;;;0.10;0.10;;;18.70;87.40;;;;;;5053830;28;20053;-71
2022/06/16 02:56:49;;;;;;;0.35;0.35;;;18.70;87.00;;;;;;5053686;28;20051;-72
2022/06/16 02:59:20;;;;;;;0.43;0.43;;;18.60;87.40;;;;;;5035834;28;20021;-72
2022/06/16 03:01:47;;;;;;;0.10;0.10;;;18.50;87.60;;;;;;5053822;28;20079;-71
2022/06/16 03:04:16;;;;;;;0.10;0.10;;;18.50;88.10;;;;;;5053587;28;20391;-71
2022/06/16 03:06:42;;;;;;;0.05;0.05;;;18.40;88.70;;;;;;5035750;28;20361;-71
2022/06/16 03:09:08;;;;;;;0.13;0.13;;;18.50;89.00;;;;;;5053464;28;20428;-71
2022/06/16 03:11:35;;;;;;;0.10;0.10;;;18.60;88.40;;;;;;5053556;28;20028;-71
2022/06/16 03:14:02;;;;;;;0.43;0.43;;;18.80;87.50;;;;;;5053413;28;20091;-71
2022/06/16 03:16:28;;;;;;;0.30;0.30;;;18.70;87.70;;;;;;5053277;28;20045;-71
2022/06/16 03:18:54;;;;;;;0.38;0.38;;;18.60;88.40;;;;;;5053800;28;20052;-71
2022/06/16 03:21:20;;;;;;;0.10;0.10;;;18.50;88.30;;;;;;5053417;28;20032;-70
2022/06/16 03:23:45;;;;;;;0.10;0.10;;;18.50;88.50;;;;;;5035222;28;20021;-71
2022/06/16 03:26:11;;;;;;;2.83;0.60;;;18.60;88.80;;;;;;5053237;28;20029;-71
2022/06/16 03:28:37;;;;;;;0.10;0.10;;;18.40;88.50;;;;;;5035272;28;20032;-71
2022/06/16 03:31:04;;;;;;;0.10;0.10;;;18.40;89.10;;;;;;5048162;23;20341;-73
2022/06/16 03:33:30;;;;;;;0.10;0.10;;;18.60;88.20;;;;;;5034566;28;20021;-73
2022/06/16 03:35:56;;;;;;;0.20;0.20;;;18.70;87.80;;;;;;5034922;28;20063;-73
2022/06/16 03:40:49;;;;;;;0.05;0.05;;;18.60;87.80;;;;;;5052844;28;20028;-73
2022/06/16 03:43:15;;;;;;;0.40;0.40;;;18.50;87.60;;;;;;5052652;28;20396;-73
2022/06/16 03:45:41;;;;;;;0.10;0.10;;;18.50;88.30;;;;;;5052438;28;20102;-73
2022/06/16 03:48:07;;;;;;;0.13;0.13;;;18.50;88.70;;;;;;5051958;28;20021;-73
2022/06/16 03:50:33;;;;;;;0.22;0.22;;;18.40;88.30;;;;;;5052623;28;20009;-72
2022/06/16 03:52:59;;;;;;;0.10;0.10;;;18.10;90.20;;;;;;5034698;28;20040;-73
2022/06/16 03:55:25;;;;;;;0.10;0.10;;;18.00;90.30;;;;;;5034541;28;20032;-73
2022/06/16 03:57:51;;;;;;;0.20;0.20;;;18.10;90.20;;;;;;5052369;28;20408;-73
2022/06/16 04:00:19;;;;;;;1.10;0.30;;;18.10;90.10;;;;;;5034495;28;20032;-73
2022/06/16 04:02:46;;;;;;;0.10;0.10;;;18.10;89.60;;;;;;5052430;28;20484;-73
2022/06/16 04:05:12;;;;;;;0.10;0.10;;;18.30;89.70;;;;;;5052386;28;20029;-73
2022/06/16 04:07:38;;;;;;;0.00;0.00;;;18.40;89.60;;;;;;5052228;28;20029;-73
2022/06/16 04:10:06;;;;;;;0.10;0.10;;;18.70;87.70;;;;;;5034268;28;20110;-73
2022/06/16 04:12:32;;;;;;;0.65;0.55;;;18.70;88.20;;;;;;5052151;28;20464;-73
2022/06/16 04:14:57;;;;;;;0.10;0.10;;;18.90;87.50;;;;;;5052656;28;20021;-73
2022/06/16 04:17:24;;;;;;;0.10;0.10;;;19.10;87.20;;;;;;5052025;28;20028;-73
2022/06/16 04:22:34;;;;;;;0.00;0.00;;;19.30;85.70;;;;;;5052152;28;20028;-73
2022/06/16 04:25:00;;;;;;;0.10;0.10;;;19.30;86.30;;;;;;5034232;28;20021;-73
2022/06/16 04:27:25;;;;;;;0.10;0.10;;;19.30;87.20;;;;;;5051929;28;20055;-73
2022/06/16 04:29:52;;;;;;;0.00;0.00;;;19.20;86.60;;;;;;5051721;28;20040;-73
2022/06/16 04:32:18;;;;;;;0.10;0.10;;;19.20;87.60;;;;;;5034272;28;20048;-73
2022/06/16 04:34:44;;;;;;;0.10;0.10;;;19.20;87.40;;;;;;5051977;28;20487;-73
2022/06/16 04:37:11;;;;;;;0.30;0.30;;;19.40;87.80;;;;;;5052091;28;20460;-73
2022/06/16 04:39:37;;;;;;;0.10;0.10;;;19.30;87.00;;;;;;5033938;28;20120;-73
2022/06/16 04:42:04;;;;;;;0.00;0.00;;;19.20;88.00;;;;;;5051885;28;20056;-73
2022/06/16 04:44:31;;;;;;;0.10;0.10;;;19.20;88.90;;;;;;5052086;28;20021;-73
2022/06/16 04:46:57;;;;;;;0.10;0.10;;;19.30;88.00;;;;;;5061073;22;20503;-73
2022/06/16 04:49:24;;;;;;;0.10;0.10;;;19.50;87.60;;;;;;5052444;28;20043;-73
2022/06/16 04:51:50;;;;;;;0.10;0.10;;;19.60;88.40;;;;;;5051798;28;20025;-73
2022/06/16 04:54:16;;;;;;;0.10;0.10;;;19.60;88.50;;;;;;5051488;28;20028;-73
2022/06/16 04:56:42;;;;;;;0.70;0.70;;;19.70;88.70;;;;;;5051707;28;20025;-73
2022/06/16 04:59:07;;;;;;;0.10;0.10;;;19.80;88.50;;;;;;5035337;28;20384;-73
2022/06/16 05:01:33;;;;;;;0.10;0.10;;;19.90;88.10;;;;;;5055836;28;20021;-73
2022/06/16 05:03:59;;;;;;;0.10;0.10;;;20.00;88.50;;;;;;5055747;28;20053;-73
2022/06/16 05:06:25;;;;;;;0.10;0.10;;;20.00;88.50;;;;;;5055451;28;20025;-73
2022/06/16 05:08:50;;;;;;;0.00;0.00;;;20.10;88.80;;;;;;5037702;28;20376;-73
2022/06/16 05:11:16;;;;;;;0.08;0.08;;;20.10;88.60;;;;;;5021232;28;20051;-73
2022/06/16 05:13:42;;;;;;;0.10;0.10;;;20.20;88.80;;;;;;5055486;28;20028;-73
2022/06/16 05:16:07;;;;;;;0.10;0.10;;;20.30;87.90;;;;;;5055536;28;20024;-73
2022/06/16 05:18:33;;;;;;;0.10;0.10;;;20.50;87.90;;;;;;5055698;28;20032;-73
2022/06/16 05:21:07;;;;;;;0.10;0.10;;;20.60;86.90;;;;;;5037602;28;20041;-73
2022/06/16 05:23:33;;;;;;;0.10;0.10;;;20.60;86.70;;;;;;5037478;28;20064;-73
2022/06/16 05:25:59;;;;;;;0.00;0.00;;;20.60;86.70;;;;;;5055575;28;20057;-73
2022/06/16 05:28:25;;;;;;;0.10;0.10;;;20.70;86.40;;;;;;5055090;28;20065;-73
2022/06/16 05:30:51;;;;;;;0.05;0.05;;;20.80;87.00;;;;;;5037530;28;20059;-73
2022/06/16 05:33:16;;;;;;;0.00;0.00;;;20.90;87.30;;;;;;5037201;28;20062;-73
2022/06/16 05:35:42;;;;;;;0.00;0.00;;;21.00;86.90;;;;;;5055182;28;20025;-73
2022/06/16 05:38:08;;;;;;;0.00;0.00;;;21.00;87.10;;;;;;5054896;28;20092;-73
2022/06/16 05:40:34;;;;;;;0.32;0.32;;;21.00;88.00;;;;;;5037387;28;20056;-72
2022/06/16 05:42:59;;;;;;;0.10;0.10;;;21.00;87.60;;;;;;5020484;28;20036;-72
2022/06/16 05:45:25;;;;;;;0.08;0.08;;;21.10;88.00;;;;;;5055132;28;20025;-72
2022/06/16 05:47:51;;;;;;;0.00;0.00;;;21.30;88.20;;;;;;5054759;28;20025;-72
2022/06/16 05:50:17;;;;;;;0.10;0.10;;;21.50;86.20;;;;;;5036929;28;20082;-72
2022/06/16 05:52:44;;;;;;;0.00;0.00;;;21.70;85.80;;;;;;5054767;28;20029;-72
2022/06/16 05:55:14;;;;;;;0.00;0.00;;;21.90;84.10;;;;;;5036876;28;20482;-72
2022/06/16 05:57:40;;;;;;;0.00;0.00;;;22.00;84.40;;;;;;5054688;28;20096;-73
2022/06/16 06:00:08;;;;;;;0.00;0.00;;;22.10;84.80;;;;;;5054589;28;20102;-72
2022/06/16 06:02:33;;;;;;;0.03;0.03;;;22.10;85.50;;;;;;5036961;28;20025;-72
2022/06/16 06:04:59;;;;;;;0.05;0.05;;;22.10;85.60;;;;;;5036747;28;20079;-72
2022/06/16 06:07:25;;;;;;;0.00;0.00;;;22.10;86.40;;;;;;5054507;28;20021;-73
2022/06/16 06:18:19;;;;;;;0.00;0.00;;;22.40;82.60;;;;;;5054206;28;20025;-73
2022/06/16 06:20:46;;;;;;;0.00;0.00;;;22.50;82.60;;;;;;5036474;28;20503;-73
2022/06/16 06:23:12;;;;;;;0.00;0.00;;;22.80;82.40;;;;;;5036435;28;20210;-73
2022/06/16 06:25:38;;;;;;;0.00;0.00;;;23.20;80.80;;;;;;5054128;28;20512;-73
2022/06/16 06:28:04;;;;;;;0.38;0.38;;;23.40;79.40;;;;;;5036233;28;20021;-73
2022/06/16 06:30:31;;;;;;;1.95;1.55;;;23.40;79.20;;;;;;5054247;28;20021;-73
2022/06/16 06:32:58;;;;;;;0.00;0.00;;;23.40;78.30;;;;;;5054075;28;20029;-73
2022/06/16 06:35:24;;;;;;;11.98;1.45;;;23.30;78.90;;;;;;5054210;28;20032;-73
2022/06/16 06:37:51;;;;;;;0.00;0.00;;;23.40;77.80;;;;;;5053930;28;20029;-73
2022/06/16 06:40:23;;;;;;;0.00;0.00;;;23.50;76.90;;;;;;5036193;28;20092;-73
2022/06/16 06:42:49;;;;;;;0.15;0.10;;;23.50;77.70;;;;;;5054132;28;20021;-73
2022/06/16 06:45:15;;;;;;;0.00;0.00;;;23.40;75.50;;;;;;5035697;28;20032;-73
2022/06/16 06:47:41;;;;;;;0.00;0.00;;;23.40;75.10;;;;;;5053751;28;20106;-73
2022/06/16 06:50:07;;;;;;;0.10;0.10;;;23.30;75.60;;;;;;5053782;28;20472;-73
2022/06/16 06:52:33;;;;;;;0.00;0.00;;;23.40;75.20;;;;;;5035886;28;20361;-74
2022/06/16 06:54:59;;;;;;;0.00;0.00;;;23.40;75.30;;;;;;5053734;28;20021;-73
2022/06/16 06:57:27;;;;;;;0.00;0.00;;;23.40;75.70;;;;;;5053586;28;20025;-73
2022/06/16 06:59:54;;;;;;;0.10;0.10;;;23.40;75.30;;;;;;5035893;28;20021;-73
2022/06/16 07:02:20;;;;;;;0.10;0.10;;;23.50;74.90;;;;;;5053535;28;20025;-73
2022/06/16 07:04:46;;;;;;;0.40;0.40;;;23.50;73.60;;;;;;5053496;28;20029;-73
2022/06/16 07:07:19;;;;;;;0.13;0.13;;;23.30;74.10;;;;;;5035533;28;20366;-73
2022/06/16 07:09:45;;;;;;;0.00;0.00;;;23.20;75.20;;;;;;5053320;28;20080;-73
2022/06/16 07:12:15;;;;;;;4.03;0.68;;;23.30;75.70;;;;;;5035715;28;20029;-72
2022/06/16 07:14:46;;;;;;;0.10;0.10;;;23.20;75.30;;;;;;5018909;28;20079;-73
2022/06/16 07:17:14;;;;;;;0.20;0.20;;;23.20;75.20;;;;;;5053079;28;20025;-73
2022/06/16 07:19:39;;;;;;;0.00;0.00;;;23.10;75.00;;;;;;5053107;28;20032;-73
2022/06/16 07:22:06;;;;;;;0.00;0.00;;;23.00;78.20;;;;;;5052656;28;20473;-73
2022/06/16 07:24:33;;;;;;;0.00;0.00;;;22.90;81.30;;;;;;5053157;28;20554;-73
2022/06/16 07:26:59;;;;;;;0.00;0.00;;;23.00;88.80;;;;;;5052882;28;20103;-73
2022/06/16 07:29:25;;;;;;;0.00;0.00;;;22.70;86.40;;;;;;5052966;28;20048;-73
2022/06/16 07:31:50;;;;;;;0.00;0.00;;;22.60;89.50;;;;;;5053004;28;20044;-73
2022/06/16 07:34:17;;;;;;;1.25;0.55;;;22.40;87.20;;;;;;5052684;28;20040;-73
2022/06/16 07:36:42;;;;;;;0.00;0.00;;;22.30;88.30;;;;;;5052775;28;20032;-73
2022/06/16 07:39:08;;;;;;;0.03;0.03;;;22.20;89.60;;;;;;5052774;28;20025;-73
2022/06/16 07:44:08;;;;;;;0.00;0.00;;;22.50;89.00;;;;;;5032118;28;20054;-73
2022/06/16 07:46:35;;;;;;;0.00;0.00;;;22.60;88.70;;;;;;5032910;28;20033;-73
2022/06/16 07:49:02;;;;;;;0.38;0.38;;;22.80;89.00;;;;;;5032716;28;20101;-73
2022/06/16 07:51:29;;;;;;;0.00;0.00;;;22.80;88.10;;;;;;5015069;28;20036;-73
2022/06/16 07:53:54;;;;;;;0.00;0.00;;;22.90;89.70;;;;;;5015158;28;20056;-73
2022/06/16 07:56:20;;;;;;;0.15;0.15;;;23.00;89.20;;;;;;5032578;28;20065;-73
2022/06/16 07:58:46;;;;;;;1.25;0.55;;;23.10;86.30;;;;;;5014922;28;20262;-73
2022/06/16 08:01:12;;;;;;;0.00;0.00;;;23.30;86.30;;;;;;5014909;28;20025;-73
2022/06/16 08:03:38;;;;;;;0.05;0.05;;;23.40;87.00;;;;;;5032630;28;20104;-73
2022/06/16 08:06:16;;;;;;;0.08;0.08;;;23.40;83.70;;;;;;5032536;28;20096;-73
2022/06/16 08:08:43;;;;;;;1.25;0.10;;;23.50;85.00;;;;;;5014624;28;20148;-73
2022/06/16 08:13:55;;;;;;;1.83;0.68;;;23.60;83.30;;;;;;5032361;28;20028;-73
2022/06/16 08:16:21;;;;;;;0.03;0.03;;;23.90;82.90;;;;;;5032360;28;20022;-73
2022/06/16 08:18:47;;;;;;;0.00;0.00;;;24.10;82.20;;;;;;5014539;28;20160;-73
2022/06/16 08:21:13;;;;;;;2.38;0.45;;;24.20;81.20;;;;;;5031842;28;20484;-73
2022/06/16 08:23:39;;;;;;;0.00;0.00;;;24.70;79.50;;;;;;5032049;28;20025;-73
2022/06/16 08:26:05;;;;;;;0.65;0.65;;;24.90;78.20;;;;;;5032190;28;20492;-73
2022/06/16 08:28:33;;;;;;;1.10;0.70;;;24.80;76.80;;;;;;5014303;28;20112;-73
2022/06/16 08:31:00;;;;;;;1.08;1.05;;;25.10;76.90;;;;;;5012419;28;20483;-73
2022/06/16 08:33:27;;;;;;;0.10;0.10;;;24.90;76.00;;;;;;5011473;28;20030;-73
2022/06/16 08:35:53;;;;;;;0.00;0.00;;;24.80;75.90;;;;;;5012299;28;20100;-73
2022/06/16 08:38:18;;;;;;;0.00;0.00;;;24.70;77.50;;;;;;5012111;28;20050;-72
2022/06/16 08:40:47;;;;;;;0.00;0.00;;;24.80;75.90;;;;;;5010988;28;20037;-73
2022/06/16 08:43:29;;;;;;;1.08;0.55;;;24.90;75.60;;;;;;4994308;28;20045;-72
2022/06/16 08:45:58;;;;;;;0.00;0.00;;;25.10;75.50;;;;;;5011113;28;20033;-72
2022/06/16 08:48:26;;;;;;;0.10;0.10;;;25.60;74.20;;;;;;5031221;28;20105;-73
2022/06/16 08:50:59;;;;;;;1.55;0.80;;;25.70;73.40;;;;;;5031793;28;20356;-73
2022/06/16 08:53:45;;;;;;;1.95;1.50;;;26.30;72.70;;;;;;5013352;28;20441;-73
2022/06/16 08:56:18;;;;;;;2.83;1.27;;;25.90;71.30;;;;;;5031938;28;20017;-73
2022/06/16 08:58:58;;;;;;;3.05;2.83;;;25.30;73.20;;;;;;5031698;28;20026;-73
2022/06/16 09:01:39;;;;;;;0.00;0.00;;;25.30;75.10;;;;;;5032317;28;20013;-73
2022/06/16 09:04:10;;;;;;;0.88;0.65;;;26.20;74.00;;;;;;5031794;28;20107;-73
2022/06/16 09:06:41;;;;;;;1.02;1.02;;;26.50;72.60;;;;;;5013903;28;20582;-73
2022/06/16 09:12:48;;;;;;;1.05;0.85;;;27.30;71.00;;;;;;4971101;28;20043;-74
2022/06/16 09:15:22;;;;;;;0.47;0.47;;;26.70;71.10;;;;;;5014292;28;20033;-73
2022/06/16 09:17:58;;;;;;;0.98;0.75;;;25.90;73.40;;;;;;5031794;28;20026;-74
2022/06/16 09:20:50;;;;;;;0.28;0.28;;;25.40;74.10;;;;;;5031554;28;20036;-73
2022/06/16 09:23:25;;;;;;;0.38;0.38;;;25.50;74.30;;;;;;5031573;28;20033;-72
2022/06/16 09:25:51;;;;;;;0.00;0.00;;;25.50;75.30;;;;;;5031390;28;20035;-73
2022/06/16 09:28:57;;;;;;;1.35;0.85;;;25.90;75.80;;;;;;5013957;28;20026;-72
2022/06/16 09:31:44;;;;;;;0.38;0.38;;;25.80;75.90;;;;;;5054263;23;20060;-72
2022/06/16 09:34:22;;;;;;;3.92;1.08;;;25.90;75.20;;;;;;5050923;28;20108;-73
2022/06/16 09:36:56;;;;;;;0.20;0.20;;;25.60;73.00;;;;;;5033311;28;20112;-73
2022/06/16 09:39:42;;;;;;;0.82;0.82;;;25.70;72.20;;;;;;5051217;28;20017;-73
2022/06/16 09:42:33;;;;;;;0.30;0.28;;;26.00;68.60;;;;;;5051374;28;20027;-74
2022/06/16 09:45:04;;;;;;;0.60;0.60;;;25.40;70.20;;;;;;5052516;28;20189;-73
2022/06/16 09:47:39;;;;;;;0.17;0.15;;;25.10;71.50;;;;;;5054787;28;20049;-73
2022/06/16 09:50:19;;;;;;;2.17;0.30;;;25.00;72.20;;;;;;5054875;28;20048;-73
2022/06/16 09:52:56;;;;;;;3.00;1.10;;;24.90;72.40;;;;;;5054734;28;20095;-73
2022/06/16 09:55:29;;;;;;;0.00;0.00;;;24.80;71.60;;;;;;5054653;28;20033;-73
2022/06/16 09:58:03;;;;;;;0.08;0.08;;;24.90;72.20;;;;;;5054507;28;20021;-73
2022/06/16 10:00:33;;;;;;;0.35;0.25;;;24.90;71.70;;;;;;5054784;28;20021;-73
2022/06/16 10:03:28;;;;;;;0.00;0.00;;;25.10;69.40;;;;;;5038442;28;20016;-74
2022/06/16 10:06:12;;;;;;;0.00;0.00;;;26.10;68.80;;;;;;5058422;28;20502;-74
2022/06/16 10:08:56;;;;;;;3.20;1.45;;;26.80;66.20;;;;;;5039429;28;20048;-74
2022/06/16 10:11:55;;;;;;;0.30;0.30;;;27.10;64.70;;;;;;5040777;28;20035;-73
2022/06/16 10:14:24;;;;;;;2.08;0.90;;;27.40;64.20;;;;;;5056501;28;20060;-74
2022/06/16 10:16:58;;;;;;;3.08;1.30;;;27.70;63.80;;;;;;5072155;28;20024;-74
2022/06/16 10:19:29;;;;;;;0.43;0.35;;;27.60;62.40;;;;;;5056398;28;20032;-73
2022/06/16 10:21:55;;;;;;;1.02;1.00;;;26.60;64.50;;;;;;5074147;28;20032;-73
2022/06/16 10:24:25;;;;;;;0.38;0.38;;;26.00;64.20;;;;;;5074224;28;20028;-74
2022/06/16 10:26:52;;;;;;;0.25;0.25;;;26.20;66.80;;;;;;5073936;28;20071;-74
2022/06/16 10:29:26;;;;;;;0.22;0.22;;;26.20;65.40;;;;;;5074187;28;20024;-73
2022/06/16 10:31:54;;;;;;;0.00;0.00;;;26.60;64.10;;;;;;5073214;28;20051;-73
2022/06/16 10:34:29;;;;;;;0.10;0.10;;;27.10;64.70;;;;;;5063836;28;20017;-73
2022/06/16 10:37:14;;;;;;;0.95;0.22;;;26.90;64.00;;;;;;5060920;28;20021;-73
2022/06/16 10:39:55;;;;;;;2.42;1.83;;;27.20;64.70;;;;;;5073933;28;20051;-73
2022/06/16 10:42:39;;;;;;;6.13;1.45;;;27.10;63.40;;;;;;5056925;28;20035;-73
2022/06/16 10:45:05;;;;;;;1.02;0.95;;;27.30;64.50;;;;;;5035860;28;20477;-74
2022/06/16 10:47:48;;;;;;;0.68;0.68;;;27.80;63.20;;;;;;5053518;28;20021;-74
2022/06/16 10:50:23;;;;;;;0.93;0.38;;;27.60;61.90;;;;;;5047246;28;20016;-74
2022/06/16 10:53:01;;;;;;;0.90;0.57;;;27.20;64.40;;;;;;5073797;28;20056;-74
2022/06/16 10:55:34;;;;;;;0.40;0.40;;;27.50;63.60;;;;;;5055484;28;20032;-74
2022/06/16 10:58:02;;;;;;;3.97;0.57;;;27.40;63.90;;;;;;5072746;28;20029;-74
2022/06/16 11:00:32;;;;;;;0.57;0.40;;;27.90;63.60;;;;;;5055533;28;20024;-74
2022/06/16 11:03:04;;;;;;;5.28;1.38;;;28.10;63.40;;;;;;5055653;28;20625;-74
2022/06/16 11:05:34;;;;;;;0.57;0.57;;;27.60;64.60;;;;;;5073373;28;20025;-74
2022/06/16 11:08:12;;;;;;;0.15;0.15;;;27.70;64.60;;;;;;5055664;28;20488;-74
2022/06/16 11:10:41;;;;;;;0.55;0.47;;;27.70;65.00;;;;;;5053349;28;20052;-74
2022/06/16 11:13:15;;;;;;;0.28;0.20;;;27.70;64.60;;;;;;5053253;28;20049;-73
2022/06/16 11:15:46;;;;;;;0.08;0.03;;;27.80;64.80;;;;;;5035508;28;20389;-74
2022/06/16 11:18:19;;;;;;;0.20;0.20;;;28.00;64.80;;;;;;5052945;28;20017;-74
2022/06/16 11:20:48;;;;;;;5.18;4.75;;;28.20;65.50;;;;;;5035173;28;20071;-73
2022/06/16 11:23:41;;;;;;;1.05;0.98;;;28.40;62.80;;;;;;5053178;28;20051;-74
2022/06/16 11:26:32;;;;;;;0.00;0.00;;;28.60;63.40;;;;;;5052993;28;20025;-73
2022/06/16 11:29:02;;;;;;;0.00;0.00;;;28.90;63.10;;;;;;5035017;28;20052;-74
2022/06/16 11:31:38;;;;;;;0.10;0.05;;;28.90;62.40;;;;;;5052907;28;20051;-74
2022/06/16 11:34:18;;;;;;;3.70;0.75;;;29.30;61.30;;;;;;5052806;28;20082;-74
2022/06/16 11:37:07;;;;;;;0.00;0.00;;;29.10;61.60;;;;;;5052630;28;20025;-74
2022/06/16 11:39:54;;;;;;;0.00;0.00;;;29.40;61.30;;;;;;5034966;28;20021;-74
2022/06/16 11:42:34;;;;;;;0.00;0.00;;;29.30;61.30;;;;;;5071844;28;20383;-74
2022/06/16 11:45:24;;;;;;;0.20;0.20;;;29.10;62.30;;;;;;5054944;28;20035;-74
2022/06/16 11:48:11;;;;;;;0.63;0.38;;;28.30;64.80;;;;;;5072325;28;20032;-74
2022/06/16 11:50:58;;;;;;;3.92;1.73;;;28.10;67.70;;;;;;5072669;28;20060;-73
2022/06/16 11:53:43;;;;;;;0.32;0.32;;;26.90;75.10;;;;;;5072492;28;20060;-74
2022/06/16 11:56:32;;;;;;;0.25;0.25;;;26.30;82.40;;;;;;5072791;28;20024;-74
2022/06/16 11:59:30;;;;;;;0.00;0.00;;;26.30;85.60;;;;;;5072385;28;20024;-74
2022/06/16 12:02:21;;;;;;;1.08;0.45;;;26.40;86.60;;;;;;5025188;28;20036;-73
2022/06/16 12:05:19;;;;;;;0.00;0.00;;;26.00;86.80;;;;;;5054615;28;20475;-73
2022/06/16 12:07:48;;;;;;;3.47;0.98;;;26.10;90.60;;;;;;5071823;28;20029;-73
2022/06/16 12:10:38;;;;;;;0.85;0.52;;;25.40;86.70;;;;;;5072203;28;20074;-73
2022/06/16 12:13:31;;;;;;;0.15;0.15;;;24.80;88.60;;;;;;5072268;28;20029;-72
2022/06/16 12:16:29;;;;;;;0.30;0.30;;;24.60;88.00;;;;;;5054289;28;20020;-73
2022/06/16 12:19:07;;;;;;;1.35;1.25;;;24.40;90.50;;;;;;5067109;28;20041;-73
2022/06/16 12:21:44;;;;;;;0.15;0.15;;;24.20;91.10;;;;;;5062871;28;20117;-73
2022/06/16 12:24:18;;;;;;;3.42;0.52;;;24.00;92.10;;;;;;5059653;28;20115;-73
2022/06/16 12:27:02;;;;;;;0.20;0.20;;;23.80;93.80;;;;;;5071966;28;20031;-73
2022/06/16 12:29:37;;;;;;;0.00;0.00;;;23.90;96.00;;;;;;5038004;28;20029;-73
2022/06/16 12:32:06;;;;;;;0.00;0.00;;;23.90;96.30;;;;;;5051887;28;20648;-73
2022/06/16 12:35:09;;;;;;;0.00;0.00;;;24.00;97.30;;;;;;5034223;28;20055;-73
2022/06/16 12:37:44;;;;;;;0.00;0.00;;;24.20;99.90;;;;;;5064246;28;20020;-73
2022/06/16 12:40:17;;;;;;;0.00;0.00;;;24.20;99.90;;;;;;5071962;28;20025;-73
2022/06/16 12:42:56;;;;;;;2.25;0.45;;;24.30;99.90;;;;;;5072029;28;20031;-73
2022/06/16 12:45:38;;;;;;;0.40;0.40;;;24.30;99.40;;;;;;5071938;28;20020;-73
2022/06/16 12:48:10;;;;;;;0.98;0.55;;;24.20;98.30;;;;;;5071559;28;20479;-77
2022/06/16 12:50:46;;;;;;;0.60;0.52;;;23.80;99.90;;;;;;5072104;28;20020;-77
2022/06/16 12:53:19;;;;;;;5.80;1.83;;;23.20;99.90;;;;;;5043423;28;20033;-76
2022/06/16 12:55:51;;;;;;;2.47;0.85;;;22.40;99.90;;;;;;5067164;28;20424;-75
2022/06/16 12:58:27;;;;;;;0.00;0.00;;;21.10;99.90;;;;;;5033398;28;20106;-76
2022/06/16 13:00:58;;;;;;;2.15;1.17;;;20.60;99.90;;;;;;5017761;28;20051;-76
2022/06/16 13:03:30;;;;;;;0.40;0.40;;;20.40;99.90;;;;;;5051994;28;20028;-75
2022/06/16 13:05:57;;;;;;;0.45;0.45;;;20.50;99.90;;;;;;5051749;28;20025;-75
2022/06/16 13:08:26;;;;;;;4.47;4.05;;;20.60;99.90;;;;;;5033675;28;20389;-76
2022/06/16 13:10:59;;;;;;;4.55;1.75;;;20.80;99.90;;;;;;5033708;28;20403;-76
2022/06/16 13:13:30;;;;;;;0.15;0.15;;;21.10;99.90;;;;;;5033759;28;20100;-76
2022/06/16 13:15:59;;;;;;;0.22;0.17;;;21.20;99.90;;;;;;5051785;28;20024;-76
2022/06/16 13:18:30;;;;;;;0.00;0.00;;;21.70;99.90;;;;;;5051331;28;20485;-76
2022/06/16 13:21:05;;;;;;;0.10;0.10;;;21.90;99.90;;;;;;5020151;28;20021;-76
2022/06/16 13:23:40;;;;;;;3.97;0.85;;;22.20;99.90;;;;;;5037510;28;20025;-76
2022/06/16 13:26:25;;;;;;;0.68;0.40;;;22.50;99.90;;;;;;5055536;28;20040;-76
2022/06/16 13:29:06;;;;;;;3.63;1.08;;;22.40;99.90;;;;;;5050736;28;20398;-76
2022/06/16 13:31:58;;;;;;;0.60;0.47;;;22.30;99.90;;;;;;5040854;28;20032;-76
2022/06/16 13:34:39;;;;;;;;;;;22.60;99.90;;;;;;5074865;28;20040;-72
2022/06/16 13:37:05;;;;;;;1.02;0.88;;;22.80;99.90;;;;;;5074898;28;19908;-72
2022/06/16 13:39:53;;;;;;;0.20;0.20;;;22.70;99.90;;;;;;5075113;28;20024;-73
2022/06/16 13:42:22;;;;;;;11.52;1.42;;;23.00;99.90;;;;;;5075025;28;20028;-73
2022/06/16 13:45:12;;;;;;;2.03;1.83;;;23.40;99.90;;;;;;5075186;28;20056;-72